createdAt,value
2022-11-24T00:01:17.726Z,100.00
2022-11-24T00:03:47.573Z,100.00
2022-11-24T00:06:17.137Z,100.00
2022-11-24T00:08:46.593Z,100.00
2022-11-24T00:11:16.344Z,100.00
2022-11-24T00:13:44.706Z,100.00
2022-11-24T00:16:15.668Z,100.00
2022-11-24T00:18:45.075Z,100.00
2022-11-24T00:21:13.757Z,100.00
2022-11-24T00:23:41.721Z,100.00
2022-11-24T00:26:11.432Z,100.00
2022-11-24T00:28:40.694Z,100.00
2022-11-24T00:31:18.604Z,100.00
2022-11-24T00:33:47.494Z,100.00
2022-11-24T00:36:16.325Z,100.00
2022-11-24T00:38:45.163Z,100.00
2022-11-24T00:41:13.474Z,100.00
2022-11-24T00:43:41.503Z,100.00
2022-11-24T00:46:09.609Z,100.00
2022-11-24T00:48:39.093Z,100.00
2022-11-24T00:51:09.792Z,100.00
2022-11-24T00:53:37.868Z,100.00
2022-11-24T00:56:06.448Z,100.00
2022-11-24T00:58:34.761Z,100.00
2022-11-24T01:01:04.750Z,100.00
2022-11-24T01:03:33.372Z,100.00
2022-11-24T01:06:06.167Z,100.00
2022-11-24T01:08:34.285Z,100.00
2022-11-24T01:11:13.676Z,100.00
2022-11-24T01:13:42.790Z,100.00
2022-11-24T01:16:22.663Z,100.00
2022-11-24T01:18:51.162Z,100.00
2022-11-24T01:21:21.256Z,100.00
2022-11-24T01:23:49.583Z,100.00
2022-11-24T01:26:19.446Z,100.00
2022-11-24T01:28:48.158Z,100.00
2022-11-24T01:31:17.128Z,100.00
2022-11-24T01:33:45.225Z,100.00
2022-11-24T01:36:13.389Z,100.00
2022-11-24T01:38:42.731Z,100.00
2022-11-24T01:41:14.120Z,100.00
2022-11-24T01:43:42.752Z,100.00
2022-11-24T01:46:18.298Z,100.00
2022-11-24T01:48:49.630Z,100.00
2022-11-24T01:51:21.583Z,100.00
2022-11-24T01:53:55.988Z,100.00
2022-11-24T01:56:24.989Z,100.00
2022-11-24T01:58:56.378Z,100.00
2022-11-24T02:01:24.659Z,100.00
2022-11-24T02:03:53.725Z,100.00
2022-11-24T02:06:25.805Z,100.00
2022-11-24T02:09:00.165Z,100.00
2022-11-24T02:11:30.262Z,100.00
2022-11-24T02:13:58.562Z,100.00
2022-11-24T02:16:26.784Z,100.00
2022-11-24T02:18:54.982Z,100.00
2022-11-24T02:21:22.991Z,100.00
2022-11-24T02:24:01.204Z,100.00
2022-11-24T02:26:41.449Z,100.00
2022-11-24T02:29:10.354Z,100.00
2022-11-24T02:31:38.661Z,100.00
2022-11-24T02:34:06.603Z,100.00
2022-11-24T02:36:34.692Z,100.00
2022-11-24T02:39:02.640Z,100.00
2022-11-24T02:41:30.644Z,100.00
2022-11-24T02:44:02.961Z,100.00
2022-11-24T02:46:30.942Z,100.00
2022-11-24T02:48:59.071Z,100.00
2022-11-24T02:51:27.044Z,100.00
2022-11-24T02:53:55.054Z,100.00
2022-11-24T02:56:23.083Z,100.00
2022-11-24T02:58:51.037Z,100.00
2022-11-24T03:01:20.449Z,100.00
2022-11-24T03:03:48.541Z,100.00
2022-11-24T03:06:16.534Z,100.00
2022-11-24T03:08:44.517Z,100.00
2022-11-24T03:11:12.439Z,100.00
2022-11-24T03:13:40.386Z,100.00
2022-11-24T03:16:10.785Z,100.00
2022-11-24T03:18:40.210Z,100.00
2022-11-24T03:21:08.192Z,100.00
2022-11-24T03:23:36.175Z,100.00
2022-11-24T03:26:11.774Z,100.00
2022-11-24T03:28:39.798Z,100.00
2022-11-24T03:31:08.578Z,100.00
2022-11-24T03:33:36.722Z,100.00
2022-11-24T03:36:07.851Z,100.00
2022-11-24T03:38:36.147Z,100.00
2022-11-24T03:41:04.157Z,100.00
2022-11-24T03:43:32.109Z,100.00
2022-11-24T03:46:00.222Z,100.00
2022-11-24T03:48:28.286Z,100.00
2022-11-24T03:50:57.234Z,100.00
2022-11-24T03:53:28.913Z,100.00
2022-11-24T03:55:57.384Z,100.00
2022-11-24T03:58:25.746Z,100.00
2022-11-24T04:00:54.900Z,100.00
2022-11-24T04:03:23.523Z,100.00
2022-11-24T04:05:51.714Z,100.00
2022-11-24T04:08:20.248Z,100.00
2022-11-24T04:10:53.899Z,100.00
2022-11-24T04:13:23.434Z,100.00
2022-11-24T04:15:51.776Z,100.00
2022-11-24T04:18:20.676Z,100.00
2022-11-24T04:20:51.460Z,100.00
2022-11-24T04:23:19.483Z,100.00
2022-11-24T04:25:47.678Z,100.00
2022-11-24T04:28:17.036Z,100.00
2022-11-24T04:30:45.378Z,100.00
2022-11-24T04:33:14.085Z,100.00
2022-11-24T04:35:42.068Z,100.00
2022-11-24T04:38:10.179Z,100.00
2022-11-24T04:40:38.527Z,100.00
2022-11-24T04:43:06.500Z,100.00
2022-11-24T04:45:35.875Z,100.00
2022-11-24T04:48:03.927Z,100.00
2022-11-24T04:50:31.998Z,100.00
2022-11-24T04:52:59.985Z,100.00
2022-11-24T04:55:27.964Z,100.00
2022-11-24T04:57:56.033Z,100.00
2022-11-24T05:00:24.181Z,100.00
2022-11-24T05:02:53.548Z,100.00
2022-11-24T05:05:21.547Z,100.00
2022-11-24T05:07:49.599Z,100.00
2022-11-24T05:10:36.317Z,100.00
2022-11-24T05:13:06.486Z,100.00
2022-11-24T05:15:34.392Z,100.00
2022-11-24T05:18:07.024Z,100.00
2022-11-24T05:20:35.432Z,100.00
2022-11-24T05:23:04.325Z,100.00
2022-11-24T05:25:32.439Z,100.00
2022-11-24T05:28:02.088Z,100.00
2022-11-24T05:30:30.820Z,100.00
2022-11-24T05:32:58.947Z,100.00
2022-11-24T05:35:28.439Z,100.00
2022-11-24T05:37:56.327Z,100.00
2022-11-24T05:40:24.224Z,100.00
2022-11-24T05:42:52.181Z,100.00
2022-11-24T05:45:21.454Z,100.00
2022-11-24T05:47:50.660Z,100.00
2022-11-24T05:50:20.464Z,100.00
2022-11-24T05:52:50.141Z,100.00
2022-11-24T05:55:19.397Z,100.00
2022-11-24T05:57:47.369Z,100.00
2022-11-24T06:00:17.942Z,100.00
2022-11-24T06:02:46.025Z,100.00
2022-11-24T06:05:14.009Z,100.00
2022-11-24T06:07:42.023Z,100.00
2022-11-24T06:10:11.683Z,100.00
2022-11-24T06:12:42.803Z,100.00
2022-11-24T06:15:12.206Z,100.00
2022-11-24T06:17:40.837Z,100.00
2022-11-24T06:20:10.537Z,100.00
2022-11-24T06:22:38.842Z,100.00
2022-11-24T06:25:09.778Z,100.00
2022-11-24T06:27:39.124Z,100.00
2022-11-24T06:30:07.882Z,100.00
2022-11-24T06:32:35.834Z,100.00
2022-11-24T06:35:04.817Z,100.00
2022-11-24T06:37:32.802Z,100.00
2022-11-24T06:40:00.763Z,100.00
2022-11-24T06:42:28.705Z,100.00
2022-11-24T06:44:58.035Z,100.00
2022-11-24T06:47:25.974Z,100.00
2022-11-24T06:49:53.854Z,100.00
2022-11-24T06:52:21.723Z,100.00
2022-11-24T06:54:49.585Z,100.00
2022-11-24T06:57:17.469Z,100.00
2022-11-24T06:59:45.346Z,100.00
2022-11-24T07:02:14.612Z,100.00
2022-11-24T07:04:42.591Z,100.00
2022-11-24T07:07:11.492Z,100.00
2022-11-24T07:09:39.428Z,100.00
2022-11-24T07:12:08.005Z,100.00
2022-11-24T07:14:36.572Z,100.00
2022-11-24T07:17:04.834Z,100.00
2022-11-24T07:19:34.430Z,100.00
2022-11-24T07:22:02.699Z,100.00
2022-11-24T07:24:30.663Z,100.00
2022-11-24T07:26:58.637Z,100.00
2022-11-24T07:29:26.573Z,100.00
2022-11-24T07:31:54.639Z,100.00
2022-11-24T07:34:27.800Z,100.00
2022-11-24T07:36:58.028Z,100.00
2022-11-24T07:39:26.046Z,100.00
2022-11-24T07:41:54.224Z,100.00
2022-11-24T07:44:22.203Z,100.00
2022-11-24T07:46:51.233Z,100.00
2022-11-24T07:49:19.274Z,100.00
2022-11-24T07:51:47.349Z,100.00
2022-11-24T07:54:16.871Z,100.00
2022-11-24T07:56:44.953Z,100.00
2022-11-24T07:59:12.842Z,100.00
2022-11-24T08:01:40.859Z,100.00
2022-11-24T08:04:08.932Z,100.00
2022-11-24T08:06:40.944Z,100.00
2022-11-24T08:09:12.448Z,100.00
2022-11-24T08:12:22.256Z,100.00
2022-11-24T08:14:52.415Z,100.00
2022-11-24T08:17:20.616Z,100.00
2022-11-24T08:19:54.559Z,100.00
2022-11-24T08:22:23.012Z,100.00
2022-11-24T08:24:51.977Z,100.00
2022-11-24T08:27:21.815Z,100.00
2022-11-24T08:29:52.244Z,100.00
2022-11-24T08:32:22.495Z,100.00
2022-11-24T08:34:52.096Z,100.00
2022-11-24T08:37:20.501Z,100.00
2022-11-24T08:39:48.671Z,100.00
2022-11-24T08:42:16.739Z,100.00
2022-11-24T08:44:49.049Z,100.00
2022-11-24T08:47:17.324Z,100.00
2022-11-24T08:49:45.520Z,100.00
2022-11-24T08:52:13.771Z,100.00
2022-11-24T08:54:44.357Z,100.00
2022-11-24T08:57:15.977Z,100.00
2022-11-24T08:59:48.869Z,100.00
2022-11-24T09:02:16.790Z,100.00
2022-11-24T09:04:45.763Z,100.00
2022-11-24T09:07:15.838Z,100.00
2022-11-24T09:09:45.550Z,100.00
2022-11-24T09:12:16.261Z,100.00
2022-11-24T09:14:44.383Z,100.00
2022-11-24T09:17:14.043Z,100.00
2022-11-24T09:19:42.091Z,100.00
2022-11-24T09:22:10.106Z,100.00
2022-11-24T09:24:40.375Z,100.00
2022-11-24T09:27:08.463Z,100.00
2022-11-24T09:29:36.818Z,100.00
2022-11-24T09:32:06.879Z,100.00
2022-11-24T09:34:39.687Z,100.00
2022-11-24T09:37:07.739Z,100.00
2022-11-24T09:39:37.874Z,100.00
2022-11-24T09:42:13.670Z,100.00
2022-11-24T09:45:14.983Z,100.00
2022-11-24T09:47:57.075Z,100.00
2022-11-24T09:50:28.784Z,100.00
2022-11-24T09:53:06.220Z,100.00
2022-11-24T09:55:44.903Z,100.00
2022-11-24T09:58:19.584Z,100.00
2022-11-24T10:00:54.597Z,100.00
2022-11-24T10:03:32.012Z,100.00
2022-11-24T10:06:05.381Z,100.00
2022-11-24T10:08:46.686Z,100.00
2022-11-24T10:11:17.435Z,100.00
2022-11-24T10:14:07.037Z,100.00
2022-11-24T10:16:51.240Z,100.00
2022-11-24T10:19:37.033Z,100.00
2022-11-24T10:22:28.725Z,100.00
2022-11-24T10:25:08.418Z,100.00
2022-11-24T10:27:43.551Z,100.00
2022-11-24T10:30:17.601Z,100.00
2022-11-24T10:32:50.211Z,100.00
2022-11-24T10:35:24.020Z,100.00
2022-11-24T10:38:17.661Z,100.00
2022-11-24T10:40:58.555Z,100.00
2022-11-24T10:43:31.151Z,100.00
2022-11-24T10:46:06.838Z,100.00
2022-11-24T10:48:51.765Z,100.00
2022-11-24T10:51:42.996Z,100.00
2022-11-24T10:54:21.049Z,100.00
2022-11-24T10:56:59.285Z,100.00
2022-11-24T10:59:48.282Z,100.00
2022-11-24T11:02:36.384Z,100.00
2022-11-24T11:05:31.191Z,100.00
2022-11-24T11:08:20.915Z,100.00
2022-11-24T11:11:13.170Z,100.00
2022-11-24T11:13:52.009Z,100.00
2022-11-24T11:16:39.300Z,100.00
2022-11-24T11:19:50.072Z,100.00
2022-11-24T11:22:27.553Z,100.00
2022-11-24T11:25:08.312Z,100.00
2022-11-24T11:27:38.863Z,100.00
2022-11-24T11:36:12.712Z,100.00
2022-11-24T11:38:44.743Z,100.00
2022-11-24T11:41:20.388Z,100.00
2022-11-24T11:43:58.367Z,100.00
2022-11-24T11:46:30.288Z,100.00
2022-11-24T11:48:58.563Z,100.00
2022-11-24T11:52:09.337Z,100.00
2022-11-24T11:54:59.390Z,100.00
2022-11-24T11:57:43.889Z,100.00
2022-11-24T12:00:38.167Z,100.00
2022-11-24T12:03:29.352Z,100.00
2022-11-24T12:06:08.062Z,100.00
2022-11-24T12:09:18.554Z,100.00
2022-11-24T12:11:44.614Z,100.00
2022-11-24T12:14:27.183Z,100.00
2022-11-24T12:17:04.741Z,100.00
2022-11-24T12:19:53.681Z,100.00
2022-11-24T12:22:47.318Z,98.97
2022-11-24T12:25:26.506Z,100.00
2022-11-24T12:28:06.899Z,97.08
2022-11-24T12:30:43.131Z,95.21
2022-11-24T12:33:33.956Z,95.59
2022-11-24T12:36:11.410Z,100.00
2022-11-24T12:38:55.691Z,100.00
2022-11-24T12:41:42.843Z,92.37
2022-11-24T12:44:28.773Z,91.67
2022-11-24T12:47:11.132Z,95.86
2022-11-24T12:49:48.399Z,100.00
2022-11-24T12:52:26.090Z,100.00
2022-11-24T12:54:54.979Z,100.00
2022-11-24T12:57:44.087Z,100.00
2022-11-24T13:00:22.692Z,100.00
2022-11-24T13:03:09.734Z,100.00
2022-11-24T13:05:47.665Z,100.00
2022-11-24T13:08:18.557Z,100.00
2022-11-24T13:10:55.973Z,100.00
2022-11-24T13:13:28.867Z,100.00
2022-11-24T13:19:10.824Z,100.00
2022-11-24T13:22:02.282Z,100.00
2022-11-24T13:24:32.079Z,100.00
2022-11-24T13:27:29.489Z,100.00
2022-11-24T13:29:59.774Z,100.00
2022-11-24T13:33:02.194Z,100.00
2022-11-24T13:35:30.857Z,100.00
2022-11-24T13:38:00.623Z,100.00
2022-11-24T13:41:21.007Z,100.00
2022-11-24T13:43:38.409Z,100.00
2022-11-24T13:46:10.247Z,100.00
2022-11-24T13:49:01.220Z,100.00
2022-11-24T13:51:29.402Z,100.00
2022-11-24T13:54:01.064Z,100.00
2022-11-24T13:56:31.643Z,100.00
2022-11-24T13:59:15.656Z,100.00
2022-11-24T14:01:46.827Z,100.00
2022-11-24T14:04:35.999Z,100.00
2022-11-24T14:07:09.086Z,100.00
2022-11-24T14:09:45.687Z,100.00
2022-11-24T14:12:17.476Z,100.00
2022-11-24T14:14:47.096Z,100.00
2022-11-24T14:17:23.142Z,100.00
2022-11-24T14:19:53.572Z,100.00
2022-11-24T14:22:24.289Z,100.00
2022-11-24T14:24:56.287Z,100.00
2022-11-24T14:27:30.006Z,100.00
2022-11-24T14:29:59.934Z,100.00
2022-11-24T14:32:28.007Z,100.00
2022-11-24T14:34:56.879Z,100.00
2022-11-24T14:37:25.137Z,100.00
2022-11-24T14:39:54.499Z,100.00
2022-11-24T14:42:24.487Z,100.00
2022-11-24T14:44:56.503Z,100.00
2022-11-24T14:47:31.444Z,100.00
2022-11-24T14:50:11.368Z,100.00
2022-11-24T14:52:45.651Z,100.00
2022-11-24T14:55:28.062Z,100.00
2022-11-24T14:57:56.337Z,100.00
2022-11-24T15:00:31.932Z,100.00
2022-11-24T15:03:16.995Z,100.00
2022-11-24T15:05:53.381Z,100.00
2022-11-24T15:08:38.528Z,100.00
2022-11-24T15:11:08.941Z,100.00
2022-11-24T15:13:39.296Z,100.00
2022-11-24T15:16:15.516Z,100.00
2022-11-24T15:19:00.041Z,100.00
2022-11-24T15:21:34.905Z,100.00
2022-11-24T15:24:16.897Z,100.00
2022-11-24T15:26:47.575Z,100.00
2022-11-24T15:29:16.611Z,100.00
2022-11-24T15:31:49.372Z,100.00
2022-11-24T15:34:29.625Z,100.00
2022-11-24T15:36:59.633Z,100.00
2022-11-24T15:39:29.813Z,100.00
2022-11-24T15:41:59.125Z,100.00
2022-11-24T15:44:27.043Z,100.00
2022-11-24T15:46:55.298Z,100.00
2022-11-24T15:49:23.302Z,100.00
2022-11-24T15:51:51.283Z,100.00
2022-11-24T15:54:20.478Z,100.00
2022-11-24T15:56:48.592Z,100.00
2022-11-24T15:59:20.709Z,100.00
2022-11-24T16:01:52.176Z,100.00
2022-11-24T16:04:20.264Z,100.00
2022-11-24T16:06:48.278Z,100.00
2022-11-24T16:09:17.945Z,100.00
2022-11-24T16:11:45.934Z,100.00
2022-11-24T16:14:14.051Z,100.00
2022-11-24T16:16:43.673Z,100.00
2022-11-24T16:19:12.230Z,100.00
2022-11-24T16:21:43.031Z,100.00
2022-11-24T16:24:11.305Z,100.00
2022-11-24T16:26:39.425Z,100.00
2022-11-24T16:29:09.451Z,100.00
2022-11-24T16:31:37.883Z,100.00
2022-11-24T16:34:07.243Z,100.00
2022-11-24T16:36:35.242Z,100.00
2022-11-24T16:39:05.934Z,100.00
2022-11-24T16:41:35.877Z,100.00
2022-11-24T16:44:04.112Z,100.00
2022-11-24T16:46:32.253Z,100.00
2022-11-24T16:49:04.426Z,100.00
2022-11-24T16:51:36.449Z,100.00
2022-11-24T16:54:04.718Z,100.00
2022-11-24T16:56:40.290Z,100.00
2022-11-24T16:59:09.986Z,100.00
2022-11-24T17:01:40.676Z,100.00
2022-11-24T17:04:12.549Z,100.00
2022-11-24T17:06:42.375Z,100.00
2022-11-24T17:09:11.468Z,100.00
2022-11-24T17:11:39.622Z,100.00
2022-11-24T17:14:11.620Z,100.00
2022-11-24T17:16:39.972Z,100.00
2022-11-24T17:19:10.822Z,100.00
2022-11-24T17:21:41.672Z,100.00
2022-11-24T17:24:15.492Z,100.00
2022-11-24T17:26:47.559Z,100.00
2022-11-24T17:29:17.037Z,100.00
2022-11-24T17:31:45.151Z,100.00
2022-11-24T17:34:14.043Z,100.00
2022-11-24T17:36:44.685Z,100.00
2022-11-24T17:39:14.296Z,100.00
2022-11-24T17:41:42.280Z,100.00
2022-11-24T17:44:12.705Z,100.00
2022-11-24T17:46:40.608Z,100.00
2022-11-24T17:49:12.964Z,100.00
2022-11-24T17:51:41.149Z,100.00
2022-11-24T17:54:44.800Z,100.00
2022-11-24T17:56:58.662Z,100.00
2022-11-24T17:59:26.648Z,100.00
2022-11-24T18:01:54.800Z,100.00
2022-11-24T18:04:22.810Z,100.00
2022-11-24T18:06:50.889Z,100.00
2022-11-24T18:09:20.186Z,100.00
2022-11-24T18:11:48.376Z,100.00
2022-11-24T18:14:18.060Z,100.00
2022-11-24T18:16:46.245Z,100.00
2022-11-24T18:19:14.362Z,100.00
2022-11-24T18:21:43.719Z,100.00
2022-11-24T18:24:13.027Z,100.00
2022-11-24T18:26:42.553Z,100.00
2022-11-24T18:29:11.446Z,100.00
2022-11-24T18:31:43.039Z,100.00
2022-11-24T18:34:11.283Z,100.00
2022-11-24T18:36:39.426Z,100.00
2022-11-24T18:39:09.657Z,100.00
2022-11-24T18:41:37.738Z,100.00
2022-11-24T18:44:08.627Z,100.00
2022-11-24T18:46:37.499Z,100.00
2022-11-24T18:49:07.669Z,100.00
2022-11-24T18:51:36.068Z,100.00
2022-11-24T18:54:05.282Z,100.00
2022-11-24T18:56:37.559Z,100.00
2022-11-24T18:59:08.011Z,100.00
2022-11-24T19:01:37.496Z,100.00
2022-11-24T19:04:17.300Z,100.00
2022-11-24T19:06:47.170Z,100.00
2022-11-24T19:09:22.579Z,100.00
2022-11-24T19:11:55.378Z,100.00
2022-11-24T19:14:23.539Z,100.00
2022-11-24T19:16:52.525Z,100.00
2022-11-24T19:19:21.990Z,100.00
2022-11-24T19:21:50.039Z,100.00
2022-11-24T19:24:21.177Z,100.00
2022-11-24T19:26:51.243Z,100.00
2022-11-24T19:29:19.235Z,100.00
2022-11-24T19:31:49.292Z,100.00
2022-11-24T19:34:20.260Z,100.00
2022-11-24T19:36:52.602Z,100.00
2022-11-24T19:39:20.785Z,100.00
2022-11-24T19:41:49.050Z,100.00
2022-11-24T19:44:17.700Z,100.00
2022-11-24T19:46:45.853Z,100.00
2022-11-24T19:49:18.008Z,100.00
2022-11-24T19:51:46.978Z,100.00
2022-11-24T19:54:17.079Z,100.00
2022-11-24T19:56:45.174Z,100.00
2022-11-24T19:59:14.561Z,100.00
2022-11-24T20:01:43.207Z,100.00
2022-11-24T20:04:13.621Z,100.00
2022-11-24T20:06:44.643Z,100.00
2022-11-24T20:09:16.818Z,100.00
2022-11-24T20:11:49.197Z,100.00
2022-11-24T20:14:18.975Z,100.00
2022-11-24T20:16:47.808Z,100.00
2022-11-24T20:19:17.484Z,100.00
2022-11-24T20:21:49.180Z,100.00
2022-11-24T20:24:23.329Z,100.00
2022-11-24T20:26:57.193Z,100.00
2022-11-24T20:29:31.444Z,100.00
2022-11-24T20:32:02.484Z,100.00
2022-11-24T20:34:37.320Z,100.00
2022-11-24T20:37:15.384Z,100.00
2022-11-24T20:39:47.593Z,100.00
2022-11-24T20:42:15.740Z,100.00
2022-11-24T20:44:43.962Z,100.00
2022-11-24T20:47:12.451Z,100.00
2022-11-24T20:49:49.270Z,100.00
2022-11-24T20:52:42.556Z,100.00
2022-11-24T20:55:17.691Z,100.00
2022-11-24T20:57:53.879Z,100.00
2022-11-24T21:00:22.205Z,100.00
2022-11-24T21:02:50.230Z,100.00
2022-11-24T21:05:18.325Z,100.00
2022-11-24T21:07:47.950Z,100.00
2022-11-24T21:10:17.258Z,100.00
2022-11-24T21:12:45.524Z,100.00
2022-11-24T21:15:13.505Z,100.00
2022-11-24T21:17:41.554Z,100.00
2022-11-24T21:20:13.071Z,100.00
2022-11-24T21:22:41.723Z,100.00
2022-11-24T21:25:10.699Z,100.00
2022-11-24T21:27:40.311Z,100.00
2022-11-24T21:30:09.508Z,100.00
2022-11-24T21:32:39.794Z,100.00
2022-11-24T21:35:10.239Z,100.00
2022-11-24T21:37:38.189Z,100.00
2022-11-24T21:40:07.516Z,100.00
2022-11-24T21:42:38.147Z,100.00
2022-11-24T21:45:10.688Z,100.00
2022-11-24T21:47:39.924Z,100.00
2022-11-24T21:50:12.123Z,100.00
2022-11-24T21:52:40.137Z,100.00
2022-11-24T21:55:08.839Z,100.00
2022-11-24T21:57:36.751Z,100.00
2022-11-24T22:00:05.666Z,100.00
2022-11-24T22:02:35.739Z,100.00
2022-11-24T22:05:03.870Z,100.00
2022-11-24T22:07:32.453Z,100.00
2022-11-24T22:10:00.541Z,100.00
2022-11-24T22:12:30.256Z,100.00
2022-11-24T22:14:58.218Z,100.00
2022-11-24T22:17:26.186Z,100.00
2022-11-24T22:19:57.796Z,100.00
2022-11-24T22:22:25.919Z,100.00
2022-11-24T22:24:53.889Z,100.00
2022-11-24T22:27:21.808Z,100.00
2022-11-24T22:29:54.001Z,100.00
2022-11-24T22:32:22.244Z,100.00
2022-11-24T22:34:50.257Z,100.00
2022-11-24T22:37:19.609Z,100.00
2022-11-24T22:39:47.671Z,100.00
2022-11-24T22:42:15.733Z,100.00
2022-11-24T22:44:43.804Z,100.00
2022-11-24T22:47:11.715Z,100.00
2022-11-24T22:49:39.674Z,100.00
2022-11-24T22:52:07.642Z,100.00
2022-11-24T22:54:39.977Z,100.00
2022-11-24T22:57:08.019Z,100.00
2022-11-24T22:59:41.782Z,100.00
2022-11-24T23:02:09.766Z,100.00
2022-11-24T23:04:37.919Z,100.00
2022-11-24T23:07:06.280Z,100.00
2022-11-24T23:09:34.176Z,100.00
2022-11-24T23:12:03.513Z,100.00
2022-11-24T23:14:31.470Z,100.00
2022-11-24T23:17:02.221Z,100.00
2022-11-24T23:19:30.325Z,100.00
2022-11-24T23:22:01.043Z,100.00
2022-11-24T23:24:29.028Z,100.00
2022-11-24T23:26:58.827Z,100.00
2022-11-24T23:29:28.210Z,100.00
2022-11-24T23:31:56.236Z,100.00
2022-11-24T23:34:24.284Z,100.00
2022-11-24T23:36:52.275Z,100.00
2022-11-24T23:39:20.181Z,100.00
2022-11-24T23:41:48.124Z,100.00
2022-11-24T23:44:16.524Z,100.00
2022-11-24T23:46:45.836Z,100.00
2022-11-24T23:49:13.770Z,100.00
2022-11-24T23:51:41.994Z,100.00
2022-11-24T23:54:10.567Z,100.00
2022-11-24T23:56:38.897Z,100.00
2022-11-24T23:59:07.033Z,100.00
